Terminal Aerodrome Forecast
Issued by NWS Melbourne, FL

Home | Current Version | Previous Version | Text Only | Print | Product List | Glossary On
Versions: 1 2 3 4 5 6 7 8 9 10 11 12 13
000
FTUS42 KMLB 221100
TAFDAB
TAF
KDAB 221127Z 2212/2312 12003KT P6SM FEW004 SCT080 BKN250
      TEMPO 2212/2213 BKN004
     FM221600 19008KT P6SM VCSH SCT020 BKN050 BKN100
     FM230600 19003KT 4SM BR SCT006 OVC015=

USA.gov is the U.S. government's official web portal to all federal, state and local government web resources and services.